Time;durP1;ratioP1;P1;durP2;ratioP2;P2;SDS_P1;SDS_P2;PMS_P1;PMS_P2;Temp;Humidity;BMP_temperature;BMP_pressure;BME280_temperature;BME280_humidity;BME280_pressure;Samples;Min_cycle;Max_cycle;Signal;HPM_P1;HPM_P2
2023/03/22 00:00:26;;;;;;;;;;;;;;;;;;136751;1284;22193;-79
2023/03/22 00:03:48;;;;;;;;;;;;;;;;;;136720;1284;22344;-79
2023/03/22 00:06:51;;;;;;;;;;;;;;;;;;136728;1284;22245;-79
2023/03/22 00:09:53;;;;;;;;;;;;;;;;;;136724;1284;22218;-80
2023/03/22 00:12:56;;;;;;;;;;;;;;;;;;136733;1284;22749;-82
2023/03/22 00:15:58;;;;;;;;;;;;;;;;;;136707;1284;22210;-80
2023/03/22 00:19:00;;;;;;;;;;;;;;;;;;136717;1284;22283;-80
2023/03/22 00:22:05;;;;;;;;;;;;;;;;;;136723;1284;22921;-81
2023/03/22 00:25:07;;;;;;;;;;;;;;;;;;136715;1284;22676;-80
2023/03/22 00:28:09;;;;;;;;;;;;;;;;;;136731;1284;22687;-80
2023/03/22 00:31:12;;;;;;;;;;;;;;;;;;136732;1284;22742;-80
2023/03/22 00:34:14;;;;;;;;;;;;;;;;;;136530;1284;218712;-80
2023/03/22 00:37:17;;;;;;;;;;;;;;;;;;136728;1284;22303;-80
2023/03/22 00:40:19;;;;;;;;;;;;;;;;;;136729;1284;22474;-80
2023/03/22 00:43:22;;;;;;;;;;;;;;;;;;136714;1284;22282;-80
2023/03/22 00:46:24;;;;;;;;;;;;;;;;;;136742;1284;22274;-80
2023/03/22 00:49:27;;;;;;;;;;;;;;;;;;136738;1284;22386;-80
2023/03/22 00:52:29;;;;;;;;;;;;;;;;;;136721;1284;22195;-80
2023/03/22 00:55:32;;;;;;;;;;;;;;;;;;136734;1284;22288;-80
2023/03/22 00:58:34;;;;;;;;;;;;;;;;;;136695;1284;22191;-80
2023/03/22 01:01:36;;;;;;;;;;;;;;;;;;136688;1284;22963;-80
2023/03/22 01:04:45;;;;;;;;;;;;;;;;;;136734;1284;22302;-80
2023/03/22 01:07:49;;;;;;;;;;;;;;;;;;136702;1284;22283;-80
2023/03/22 01:10:51;;;;;;;;;;;;;;;;;;136675;1284;22261;-80
2023/03/22 01:13:54;;;;;;;;;;;;;;;;;;136704;1280;22222;-80
2023/03/22 01:16:57;;;;;;;;;;;;;;;;;;136685;1284;22787;-80
2023/03/22 01:19:59;;;;;;;;;;;;;;;;;;136721;1284;22357;-80
2023/03/22 01:23:02;;;;;;;;;;;;;;;;;;136727;1276;22230;-80
2023/03/22 01:26:04;;;;;;;;;;;;;;;;;;136719;1284;22687;-80
2023/03/22 01:29:06;;;;;;;;;;;;;;;;;;136711;1284;22279;-81
2023/03/22 01:32:09;;;;;;;;;;;;;;;;;;136720;1284;22166;-80
2023/03/22 01:35:11;;;;;;;;;;;;;;;;;;136757;1284;22248;-80
2023/03/22 01:38:14;;;;;;;;;;;;;;;;;;136736;1284;22309;-80
2023/03/22 01:41:16;;;;;;;;;;;;;;;;;;136720;1284;22864;-80
2023/03/22 01:44:19;;;;;;;;;;;;;;;;;;136765;1284;22250;-81
2023/03/22 01:47:21;;;;;;;;;;;;;;;;;;136751;1284;22262;-80
2023/03/22 01:50:23;;;;;;;;;;;;;;;;;;136733;1284;22419;-80
2023/03/22 01:53:26;;;;;;;;;;;;;;;;;;136735;1284;22192;-80
2023/03/22 01:56:28;;;;;;;;;;;;;;;;;;136734;1284;22270;-80
2023/03/22 01:59:31;;;;;;;;;;;;;;;;;;136724;1284;22309;-81
2023/03/22 02:02:33;;;;;;;;;;;;;;;;;;136739;1284;22286;-81
2023/03/22 02:05:36;;;;;;;;;;;;;;;;;;136719;1284;22207;-81
2023/03/22 02:08:39;;;;;;;;;;;;;;;;;;136725;1284;22650;-81
2023/03/22 02:11:41;;;;;;;;;;;;;;;;;;136720;1284;22185;-80
2023/03/22 02:14:44;;;;;;;;;;;;;;;;;;136704;1284;22291;-80
2023/03/22 02:17:50;;;;;;;;;;;;;;;;;;136697;1284;22320;-79
2023/03/22 02:20:54;;;;;;;;;;;;;;;;;;136699;1284;22367;-80
2023/03/22 02:23:56;;;;;;;;;;;;;;;;;;136692;1284;22276;-80
2023/03/22 02:26:59;;;;;;;;;;;;;;;;;;136688;1270;22239;-81
2023/03/22 02:30:01;;;;;;;;;;;;;;;;;;136695;1284;22261;-80
2023/03/22 02:33:04;;;;;;;;;;;;;;;;;;136731;1284;22251;-82
2023/03/22 02:36:07;;;;;;;;;;;;;;;;;;136737;1284;22608;-80
2023/03/22 02:39:09;;;;;;;;;;;;;;;;;;136716;1284;22266;-80
2023/03/22 02:42:12;;;;;;;;;;;;;;;;;;136717;1284;22446;-79
2023/03/22 02:45:14;;;;;;;;;;;;;;;;;;136713;1284;22258;-81
2023/03/22 02:48:17;;;;;;;;;;;;;;;;;;136692;1284;22209;-81
2023/03/22 02:51:20;;;;;;;;;;;;;;;;;;136691;1284;22387;-81
2023/03/22 02:54:22;;;;;;;;;;;;;;;;;;136711;1284;22273;-82
2023/03/22 02:57:25;;;;;;;;;;;;;;;;;;136698;1284;22260;-80
2023/03/22 03:00:27;;;;;;;;;;;;;;;;;;136725;1284;22695;-81
2023/03/22 03:03:30;;;;;;;;;;;;;;;;;;136688;1284;22883;-81
2023/03/22 03:06:34;;;;;;;;;;;;;;;;;;136695;1284;22422;-81
2023/03/22 03:09:37;;;;;;;;;;;;;;;;;;136718;1284;22899;-81
2023/03/22 03:12:39;;;;;;;;;;;;;;;;;;136699;1284;22274;-82
2023/03/22 03:15:42;;;;;;;;;;;;;;;;;;136707;1284;22286;-81
2023/03/22 03:18:48;;;;;;;;;;;;;;;;;;136725;1284;22214;-76
2023/03/22 03:21:53;;;;;;;;;;;;;;;;;;136692;1284;22351;-82
2023/03/22 03:24:55;;;;;;;;;;;;;;;;;;136695;1284;22239;-82
2023/03/22 03:27:58;;;;;;;;;;;;;;;;;;136714;1284;22199;-78
2023/03/22 03:31:00;;;;;;;;;;;;;;;;;;136698;1284;22767;-82
2023/03/22 03:34:03;;;;;;;;;;;;;;;;;;136704;1284;22662;-81
2023/03/22 03:37:07;;;;;;;;;;;;;;;;;;136686;1284;22187;-82
2023/03/22 03:40:09;;;;;;;;;;;;;;;;;;136709;1284;22800;-82
2023/03/22 03:43:12;;;;;;;;;;;;;;;;;;136721;1284;22307;-81
2023/03/22 03:46:14;;;;;;;;;;;;;;;;;;136687;1284;22283;-81
2023/03/22 03:49:17;;;;;;;;;;;;;;;;;;136699;1280;22215;-81
2023/03/22 03:52:23;;;;;;;;;;;;;;;;;;136710;1284;22358;-81
2023/03/22 03:55:25;;;;;;;;;;;;;;;;;;136701;1284;22760;-82
2023/03/22 03:58:29;;;;;;;;;;;;;;;;;;136695;1284;22341;-82
2023/03/22 04:01:31;;;;;;;;;;;;;;;;;;136704;1284;22729;-81
2023/03/22 04:04:34;;;;;;;;;;;;;;;;;;136714;1284;22308;-81
2023/03/22 04:07:36;;;;;;;;;;;;;;;;;;136693;1284;22252;-81
2023/03/22 04:10:39;;;;;;;;;;;;;;;;;;136724;1273;22229;-82
2023/03/22 04:13:41;;;;;;;;;;;;;;;;;;136727;1284;22270;-82
2023/03/22 04:16:44;;;;;;;;;;;;;;;;;;136684;1284;22261;-82
2023/03/22 04:19:46;;;;;;;;;;;;;;;;;;136694;1284;23005;-82
2023/03/22 04:22:48;;;;;;;;;;;;;;;;;;136685;1284;22245;-81
2023/03/22 04:25:51;;;;;;;;;;;;;;;;;;136718;1284;22312;-82
2023/03/22 04:28:53;;;;;;;;;;;;;;;;;;136694;1284;22249;-83
2023/03/22 04:31:56;;;;;;;;;;;;;;;;;;136708;1284;22658;-82
2023/03/22 04:34:58;;;;;;;;;;;;;;;;;;136725;1284;22407;-79
2023/03/22 04:38:01;;;;;;;;;;;;;;;;;;136695;1284;22329;-83
2023/03/22 04:41:04;;;;;;;;;;;;;;;;;;136661;1284;22363;-83
2023/03/22 04:44:07;;;;;;;;;;;;;;;;;;136707;1284;22504;-82
2023/03/22 04:47:09;;;;;;;;;;;;;;;;;;136674;1284;22265;-81
2023/03/22 04:50:11;;;;;;;;;;;;;;;;;;136652;1284;22914;-82
2023/03/22 04:53:14;;;;;;;;;;;;;;;;;;136673;1284;22602;-80
2023/03/22 04:56:16;;;;;;;;;;;;;;;;;;136654;1284;22904;-82
2023/03/22 04:59:19;;;;;;;;;;;;;;;;;;136667;1284;22615;-81
2023/03/22 05:02:21;;;;;;;;;;;;;;;;;;136658;1284;22258;-82
2023/03/22 05:05:24;;;;;;;;;;;;;;;;;;136663;1284;22263;-82
2023/03/22 05:08:26;;;;;;;;;;;;;;;;;;136557;1284;22370;-82
2023/03/22 05:11:29;;;;;;;;;;;;;;;;;;136643;1284;22581;-82
2023/03/22 05:14:31;;;;;;;;;;;;;;;;;;136633;1284;22248;-82
2023/03/22 05:17:33;;;;;;;;;;;;;;;;;;136632;1284;22683;-80
2023/03/22 05:20:36;;;;;;;;;;;;;;;;;;136627;1284;22516;-82
2023/03/22 05:23:38;;;;;;;;;;;;;;;;;;136604;1284;22319;-81
2023/03/22 05:26:41;;;;;;;;;;;;;;;;;;136643;1284;22265;-82
2023/03/22 05:29:45;;;;;;;;;;;;;;;;;;136650;1284;22190;-81
2023/03/22 05:32:49;;;;;;;;;;;;;;;;;;136632;1284;22166;-82
2023/03/22 05:35:51;;;;;;;;;;;;;;;;;;136621;1284;22287;-81
2023/03/22 05:38:54;;;;;;;;;;;;;;;;;;136651;1284;22220;-81
2023/03/22 05:41:56;;;;;;;;;;;;;;;;;;136608;1284;22383;-81
2023/03/22 05:44:59;;;;;;;;;;;;;;;;;;136635;1284;22303;-82
2023/03/22 05:48:01;;;;;;;;;;;;;;;;;;136645;1284;22307;-83
2023/03/22 05:51:04;;;;;;;;;;;;;;;;;;136618;1284;22371;-82
2023/03/22 05:54:07;;;;;;;;;;;;;;;;;;136627;1284;22169;-82
2023/03/22 05:57:09;;;;;;;;;;;;;;;;;;136634;1284;22585;-82
2023/03/22 06:00:12;;;;;;;;;;;;;;;;;;136608;1284;22172;-81
2023/03/22 06:03:17;;;;;;;;;;;;;;;;;;136607;1284;22288;-81
2023/03/22 06:06:19;;;;;;;;;;;;;;;;;;136636;1284;22231;-81
2023/03/22 06:09:21;;;;;;;;;;;;;;;;;;136614;1284;22285;-83
2023/03/22 06:12:24;;;;;;;;;;;;;;;;;;136635;1279;22354;-81
2023/03/22 06:15:27;;;;;;;;;;;;;;;;;;136645;1284;22275;-83
2023/03/22 06:18:29;;;;;;;;;;;;;;;;;;136645;1284;22767;-82
2023/03/22 06:21:32;;;;;;;;;;;;;;;;;;136646;1284;22434;-82
2023/03/22 06:24:34;;;;;;;;;;;;;;;;;;136659;1284;22772;-82
2023/03/22 06:27:37;;;;;;;;;;;;;;;;;;136637;1273;22209;-84
2023/03/22 06:30:39;;;;;;;;;;;;;;;;;;136688;1284;22216;-83
2023/03/22 06:33:42;;;;;;;;;;;;;;;;;;136682;1284;22262;-84
2023/03/22 06:36:44;;;;;;;;;;;;;;;;;;136650;1284;22272;-87
2023/03/22 06:39:47;;;;;;;;;;;;;;;;;;136648;1284;22395;-83
2023/03/22 06:42:49;;;;;;;;;;;;;;;;;;136590;1284;22282;-84
2023/03/22 06:45:52;;;;;;;;;;;;;;;;;;136654;1284;22344;-83
2023/03/22 06:48:54;;;;;;;;;;;;;;;;;;136557;1284;22844;-83
2023/03/22 06:51:57;;;;;;;;;;;;;;;;;;136601;1284;22353;-84
2023/03/22 06:55:00;;;;;;;;;;;;;;;;;;136642;1284;22227;-84
2023/03/22 06:58:02;;;;;;;;;;;;;;;;;;136640;1284;22171;-82
2023/03/22 07:01:05;;;;;;;;;;;;;;;;;;136664;1284;22261;-85
2023/03/22 07:04:09;;;;;;;;;;;;;;;;;;136661;1284;22392;-84
2023/03/22 07:07:12;;;;;;;;;;;;;;;;;;136647;1284;22187;-81
2023/03/22 07:10:15;;;;;;;;;;;;;;;;;;136643;1284;22731;-84
2023/03/22 07:13:17;;;;;;;;;;;;;;;;;;136644;1284;22289;-84
2023/03/22 07:16:20;;;;;;;;;;;;;;;;;;136641;1284;22478;-79
2023/03/22 07:19:28;;;;;;;;;;;;;;;;;;136613;1284;22311;-81
2023/03/22 07:22:46;;;;;;;;;;;;;;;;;;136628;1284;22425;-81
2023/03/22 07:25:54;;;;;;;;;;;;;;;;;;136624;1284;22300;-82
2023/03/22 07:28:57;;;;;;;;;;;;;;;;;;136617;1284;22209;-81
2023/03/22 07:31:59;;;;;;;;;;;;;;;;;;136656;1284;22313;-82
2023/03/22 07:35:02;;;;;;;;;;;;;;;;;;136699;1284;22300;-82
2023/03/22 07:38:05;;;;;;;;;;;;;;;;;;136712;1284;22229;-79
2023/03/22 07:41:07;;;;;;;;;;;;;;;;;;136702;1284;22389;-80
2023/03/22 07:44:10;;;;;;;;;;;;;;;;;;136641;1284;22294;-81
2023/03/22 07:47:12;;;;;;;;;;;;;;;;;;136630;1280;22692;-82
2023/03/22 07:50:16;;;;;;;;;;;;;;;;;;136628;1283;22376;-82
2023/03/22 07:53:18;;;;;;;;;;;;;;;;;;136652;1284;22216;-83
2023/03/22 07:56:21;;;;;;;;;;;;;;;;;;136615;1284;22273;-84
2023/03/22 07:59:23;;;;;;;;;;;;;;;;;;136626;1284;22204;-82
2023/03/22 08:02:26;;;;;;;;;;;;;;;;;;136652;1284;22308;-83
2023/03/22 08:05:28;;;;;;;;;;;;;;;;;;136658;1284;22193;-82
2023/03/22 08:08:31;;;;;;;;;;;;;;;;;;136641;1284;22235;-83
2023/03/22 08:11:33;;;;;;;;;;;;;;;;;;136620;1284;22293;-83
2023/03/22 08:14:36;;;;;;;;;;;;;;;;;;136637;1284;22252;-85
2023/03/22 08:17:38;;;;;;;;;;;;;;;;;;136650;1284;22694;-84
2023/03/22 08:20:44;;;;;;;;;;;;;;;;;;136635;1284;22413;-83
2023/03/22 08:23:46;;;;;;;;;;;;;;;;;;136614;1284;22267;-83
2023/03/22 08:26:49;;;;;;;;;;;;;;;;;;136575;1284;22316;-84
2023/03/22 08:29:51;;;;;;;;;;;;;;;;;;136663;1284;22728;-84
2023/03/22 08:32:54;;;;;;;;;;;;;;;;;;136627;1284;22284;-81
2023/03/22 08:35:56;;;;;;;;;;;;;;;;;;136627;1284;22271;-83
2023/03/22 08:39:00;;;;;;;;;;;;;;;;;;136651;1284;22184;-83
2023/03/22 08:42:02;;;;;;;;;;;;;;;;;;136603;1284;23188;-83
2023/03/22 08:45:05;;;;;;;;;;;;;;;;;;136664;1284;22303;-82
2023/03/22 08:48:07;;;;;;;;;;;;;;;;;;136636;1284;22266;-84
2023/03/22 08:51:09;;;;;;;;;;;;;;;;;;136646;1284;22417;-83
2023/03/22 08:54:12;;;;;;;;;;;;;;;;;;136664;1284;22177;-82
2023/03/22 08:57:15;;;;;;;;;;;;;;;;;;136621;1284;22263;-82
2023/03/22 09:00:17;;;;;;;;;;;;;;;;;;136656;1284;22267;-82
2023/03/22 09:03:21;;;;;;;;;;;;;;;;;;136660;1284;22341;-83
2023/03/22 09:06:24;;;;;;;;;;;;;;;;;;136645;1284;22169;-81
2023/03/22 09:09:27;;;;;;;;;;;;;;;;;;136636;1284;22321;-82
2023/03/22 09:12:30;;;;;;;;;;;;;;;;;;136659;1284;22286;-84
2023/03/22 09:15:33;;;;;;;;;;;;;;;;;;136629;1284;22746;-82
2023/03/22 09:18:35;;;;;;;;;;;;;;;;;;136623;1284;22263;-84
2023/03/22 09:21:38;;;;;;;;;;;;;;;;;;136620;1284;22372;-83
2023/03/22 09:24:40;;;;;;;;;;;;;;;;;;136666;1284;22264;-84
2023/03/22 09:27:42;;;;;;;;;;;;;;;;;;136629;1284;22234;-82
2023/03/22 09:30:45;;;;;;;;;;;;;;;;;;136661;1284;22793;-83
2023/03/22 09:33:48;;;;;;;;;;;;;;;;;;136677;1284;22247;-83
2023/03/22 09:36:51;;;;;;;;;;;;;;;;;;136680;1274;22209;-82
2023/03/22 09:39:54;;;;;;;;;;;;;;;;;;136671;1284;22417;-83
2023/03/22 09:42:56;;;;;;;;;;;;;;;;;;136647;1284;23181;-83
2023/03/22 09:45:58;;;;;;;;;;;;;;;;;;136638;1273;22201;-83
2023/03/22 09:49:01;;;;;;;;;;;;;;;;;;136666;1284;22268;-83
2023/03/22 09:52:04;;;;;;;;;;;;;;;;;;136651;1284;22353;-82
2023/03/22 09:55:06;;;;;;;;;;;;;;;;;;136632;1284;22179;-83
2023/03/22 09:58:09;;;;;;;;;;;;;;;;;;136623;1284;22314;-83
2023/03/22 10:01:11;;;;;;;;;;;;;;;;;;136633;1284;22260;-83
2023/03/22 10:04:16;;;;;;;;;;;;;;;;;;136604;1284;22742;-82
2023/03/22 10:07:19;;;;;;;;;;;;;;;;;;136655;1284;22285;-83
2023/03/22 10:10:21;;;;;;;;;;;;;;;;;;136636;1284;22298;-82
2023/03/22 10:13:24;;;;;;;;;;;;;;;;;;136665;1284;22365;-83
2023/03/22 10:16:26;;;;;;;;;;;;;;;;;;136651;1284;22256;-83
2023/03/22 10:19:29;;;;;;;;;;;;;;;;;;136655;1284;22431;-82
2023/03/22 10:22:31;;;;;;;;;;;;;;;;;;136685;1284;22285;-83
2023/03/22 10:25:34;;;;;;;;;;;;;;;;;;136686;1273;22196;-82
2023/03/22 10:28:36;;;;;;;;;;;;;;;;;;136660;1272;22200;-83
2023/03/22 10:31:39;;;;;;;;;;;;;;;;;;136630;1284;22665;-82
2023/03/22 10:34:42;;;;;;;;;;;;;;;;;;136643;1284;22196;-82
2023/03/22 10:37:45;;;;;;;;;;;;;;;;;;136650;1284;22299;-81
2023/03/22 10:40:47;;;;;;;;;;;;;;;;;;136672;1284;22448;-80
2023/03/22 10:43:50;;;;;;;;;;;;;;;;;;136674;1284;22264;-82
2023/03/22 10:46:52;;;;;;;;;;;;;;;;;;136701;1284;22258;-81
2023/03/22 10:49:54;;;;;;;;;;;;;;;;;;136663;1284;22350;-82
2023/03/22 10:52:57;;;;;;;;;;;;;;;;;;136659;1284;22269;-82
2023/03/22 10:55:59;;;;;;;;;;;;;;;;;;136636;1284;22210;-81
2023/03/22 10:59:02;;;;;;;;;;;;;;;;;;136658;1284;22317;-83
2023/03/22 11:02:05;;;;;;;;;;;;;;;;;;136665;1284;22253;-82
2023/03/22 11:05:08;;;;;;;;;;;;;;;;;;136656;1280;22217;-81
2023/03/22 11:08:10;;;;;;;;;;;;;;;;;;136648;1284;22261;-82
2023/03/22 11:11:13;;;;;;;;;;;;;;;;;;136705;1284;22764;-83
2023/03/22 11:14:15;;;;;;;;;;;;;;;;;;136696;1280;22180;-82
2023/03/22 11:17:18;;;;;;;;;;;;;;;;;;136697;1284;22282;-81
2023/03/22 11:20:21;;;;;;;;;;;;;;;;;;136451;1286;22791;-82
2023/03/22 11:23:24;;;;;;;;;;;;;;;;;;136376;1288;22296;-82
2023/03/22 11:26:26;;;;;;;;;;;;;;;;;;136394;1288;22257;-81
2023/03/22 11:29:29;;;;;;;;;;;;;;;;;;136389;1288;23049;-82
2023/03/22 11:32:32;;;;;;;;;;;;;;;;;;136441;1288;22227;-83
2023/03/22 11:35:34;;;;;;;;;;;;;;;;;;136418;1288;22337;-80
2023/03/22 11:38:39;;;;;;;;;;;;;;;;;;136412;1288;22271;-83
2023/03/22 11:41:41;;;;;;;;;;;;;;;;;;136406;1286;22508;-81
2023/03/22 11:44:44;;;;;;;;;;;;;;;;;;136466;1288;22736;-81
2023/03/22 11:47:46;;;;;;;;;;;;;;;;;;136481;1288;22170;-82
2023/03/22 11:50:51;;;;;;;;;;;;;;;;;;136498;1288;22392;-80
2023/03/22 11:53:55;;;;;;;;;;;;;;;;;;136524;1289;22253;-80
2023/03/22 11:56:58;;;;;;;;;;;;;;;;;;136492;1288;22286;-81
2023/03/22 12:00:01;;;;;;;;;;;;;;;;;;136499;1288;22362;-80
2023/03/22 12:03:03;;;;;;;;;;;;;;;;;;136493;1289;22273;-81
2023/03/22 12:06:06;;;;;;;;;;;;;;;;;;136501;1289;22646;-81
2023/03/22 12:09:09;;;;;;;;;;;;;;;;;;136536;1288;22256;-81
2023/03/22 12:12:11;;;;;;;;;;;;;;;;;;136523;1276;22158;-82
2023/03/22 12:15:14;;;;;;;;;;;;;;;;;;136517;1288;22254;-81
2023/03/22 12:18:17;;;;;;;;;;;;;;;;;;136521;1288;22271;-81
2023/03/22 12:21:19;;;;;;;;;;;;;;;;;;136522;1289;22391;-81
2023/03/22 12:24:22;;;;;;;;;;;;;;;;;;136550;1288;22353;-83
2023/03/22 12:27:24;;;;;;;;;;;;;;;;;;136516;1280;22138;-82
2023/03/22 12:30:27;;;;;;;;;;;;;;;;;;136520;1289;22374;-84
2023/03/22 12:33:31;;;;;;;;;;;;;;;;;;134095;1288;3191934;-81
2023/03/22 12:36:36;;;;;;;;;;;;;;;;;;136503;1288;22250;-83
2023/03/22 12:39:39;;;;;;;;;;;;;;;;;;136495;1288;23050;-81
2023/03/22 12:42:42;;;;;;;;;;;;;;;;;;136441;1288;22377;-82
2023/03/22 12:45:46;;;;;;;;;;;;;;;;;;136408;1288;22690;-83
2023/03/22 12:48:48;;;;;;;;;;;;;;;;;;136503;1289;22748;-82
2023/03/22 12:51:51;;;;;;;;;;;;;;;;;;136460;1289;22368;-83
2023/03/22 12:54:53;;;;;;;;;;;;;;;;;;136479;1288;22213;-84
2023/03/22 12:57:56;;;;;;;;;;;;;;;;;;136519;1288;22309;-84
2023/03/22 13:00:58;;;;;;;;;;;;;;;;;;136489;1288;22465;-82
2023/03/22 13:04:03;;;;;;;;;;;;;;;;;;136337;1289;22411;-82
2023/03/22 13:07:06;;;;;;;;;;;;;;;;;;136442;1288;22263;-83
2023/03/22 13:10:09;;;;;;;;;;;;;;;;;;136515;1288;22265;-84
2023/03/22 13:13:12;;;;;;;;;;;;;;;;;;136522;1288;22283;-81
2023/03/22 13:16:14;;;;;;;;;;;;;;;;;;136428;1289;22207;-80
2023/03/22 13:19:17;;;;;;;;;;;;;;;;;;136347;1289;22258;-85
2023/03/22 13:22:20;;;;;;;;;;;;;;;;;;136369;1288;22424;-80
2023/03/22 13:25:25;;;;;;;;;;;;;;;;;;136339;1288;22170;-81
2023/03/22 13:28:28;;;;;;;;;;;;;;;;;;136362;1289;22434;-81
2023/03/22 13:31:30;;;;;;;;;;;;;;;;;;136347;1289;22379;-81
2023/03/22 13:34:33;;;;;;;;;;;;;;;;;;136317;1289;22193;-78
2023/03/22 13:37:35;;;;;;;;;;;;;;;;;;136395;1288;22348;-83
2023/03/22 13:40:38;;;;;;;;;;;;;;;;;;136440;1289;22882;-82
2023/03/22 13:43:40;;;;;;;;;;;;;;;;;;136438;1289;22265;-82
2023/03/22 13:46:43;;;;;;;;;;;;;;;;;;136464;1289;22804;-82
2023/03/22 13:49:46;;;;;;;;;;;;;;;;;;136482;1289;22228;-82
2023/03/22 13:52:48;;;;;;;;;;;;;;;;;;136506;1288;22300;-83
2023/03/22 13:55:54;;;;;;;;;;;;;;;;;;136502;1288;22504;-84
2023/03/22 13:58:57;;;;;;;;;;;;;;;;;;136477;1288;22318;-81
2023/03/22 14:02:00;;;;;;;;;;;;;;;;;;136467;1288;22411;-84
2023/03/22 14:05:03;;;;;;;;;;;;;;;;;;136448;1288;22348;-81
2023/03/22 14:08:05;;;;;;;;;;;;;;;;;;136468;1282;22259;-83
2023/03/22 14:11:09;;;;;;;;;;;;;;;;;;136475;1288;22917;-83
2023/03/22 14:14:11;;;;;;;;;;;;;;;;;;136408;1288;22373;-83
2023/03/22 14:17:14;;;;;;;;;;;;;;;;;;136416;1288;22303;-83
2023/03/22 14:20:18;;;;;;;;;;;;;;;;;;136444;1288;22316;-82
2023/03/22 14:23:23;;;;;;;;;;;;;;;;;;136389;1288;22178;-84
2023/03/22 14:26:26;;;;;;;;;;;;;;;;;;136238;1288;23146;-86
2023/03/22 14:29:28;;;;;;;;;;;;;;;;;;136342;1288;22276;-82
2023/03/22 14:32:32;;;;;;;;;;;;;;;;;;136311;1288;22397;-84
2023/03/22 14:35:34;;;;;;;;;;;;;;;;;;136362;1288;22381;-82
2023/03/22 14:38:38;;;;;;;;;;;;;;;;;;136385;1289;22175;-82
2023/03/22 14:41:44;;;;;;;;;;;;;;;;;;136455;1289;22412;-85
2023/03/22 14:44:46;;;;;;;;;;;;;;;;;;136452;1288;22219;-86
2023/03/22 14:47:50;;;;;;;;;;;;;;;;;;136445;1288;22250;-83
2023/03/22 14:50:52;;;;;;;;;;;;;;;;;;136464;1288;22266;-85
2023/03/22 14:53:55;;;;;;;;;;;;;;;;;;136487;1288;22261;-85
2023/03/22 14:57:05;;;;;;;;;;;;;;;;;;136410;1288;22401;-85
2023/03/22 15:00:14;;;;;;;;;;;;;;;;;;136469;1288;22876;-84
2023/03/22 15:03:21;;;;;;;;;;;;;;;;;;136488;1274;22362;-83
2023/03/22 15:06:24;;;;;;;;;;;;;;;;;;136481;1288;22589;-83
2023/03/22 15:09:27;;;;;;;;;;;;;;;;;;136515;1288;22245;-85
2023/03/22 15:12:29;;;;;;;;;;;;;;;;;;136510;1288;22268;-83
2023/03/22 15:15:32;;;;;;;;;;;;;;;;;;136504;1288;22250;-83
2023/03/22 15:18:35;;;;;;;;;;;;;;;;;;136496;1288;22222;-83
2023/03/22 15:21:37;;;;;;;;;;;;;;;;;;136477;1288;23205;-82
2023/03/22 15:24:40;;;;;;;;;;;;;;;;;;136481;1288;22332;-82
2023/03/22 15:27:43;;;;;;;;;;;;;;;;;;136500;1286;22181;-84
2023/03/22 15:30:46;;;;;;;;;;;;;;;;;;136489;1289;22447;-82
2023/03/22 15:33:48;;;;;;;;;;;;;;;;;;136477;1289;22271;-84
2023/03/22 15:36:52;;;;;;;;;;;;;;;;;;136519;1289;22630;-83
2023/03/22 15:39:55;;;;;;;;;;;;;;;;;;136514;1289;22589;-82
2023/03/22 15:43:04;;;;;;;;;;;;;;;;;;136501;1288;22994;-85
2023/03/22 15:46:09;;;;;;;;;;;;;;;;;;136526;1288;22284;-85
2023/03/22 15:49:12;;;;;;;;;;;;;;;;;;136563;1288;22222;-85
2023/03/22 15:52:15;;;;;;;;;;;;;;;;;;136557;1288;22227;-84
2023/03/22 15:55:18;;;;;;;;;;;;;;;;;;136540;1288;22681;-85
2023/03/22 15:58:20;;;;;;;;;;;;;;;;;;136553;1288;22302;-84
2023/03/22 16:01:23;;;;;;;;;;;;;;;;;;136549;1288;22429;-85
2023/03/22 16:04:44;;;;;;;;;;;;;;;;;;136529;1273;22614;-85
2023/03/22 16:08:18;;;;;;;;;;;;;;;;;;136365;1288;22474;-85
2023/03/22 16:11:31;;;;;;;;;;;;;;;;;;136492;1288;22770;-85
2023/03/22 16:14:47;;;;;;;;;;;;;;;;;;136321;1288;22572;-86
2023/03/22 16:17:52;;;;;;;;;;;;;;;;;;136501;1288;22284;-82
2023/03/22 16:20:55;;;;;;;;;;;;;;;;;;136523;1288;22243;-83
2023/03/22 16:23:59;;;;;;;;;;;;;;;;;;136506;1288;22265;-84
2023/03/22 16:27:02;;;;;;;;;;;;;;;;;;136485;1288;22213;-85
2023/03/22 16:30:05;;;;;;;;;;;;;;;;;;136482;1288;22209;-84
2023/03/22 16:33:07;;;;;;;;;;;;;;;;;;136515;1288;22276;-84
2023/03/22 16:36:10;;;;;;;;;;;;;;;;;;136507;1288;22696;-85
2023/03/22 16:39:13;;;;;;;;;;;;;;;;;;136490;1289;22277;-85
2023/03/22 16:42:15;;;;;;;;;;;;;;;;;;136505;1288;22600;-84
2023/03/22 16:45:18;;;;;;;;;;;;;;;;;;136512;1288;22287;-86
2023/03/22 16:48:23;;;;;;;;;;;;;;;;;;136512;1288;22285;-83
2023/03/22 16:51:26;;;;;;;;;;;;;;;;;;136496;1288;22655;-84
2023/03/22 16:54:31;;;;;;;;;;;;;;;;;;136511;1288;22281;-87
2023/03/22 16:57:35;;;;;;;;;;;;;;;;;;136533;1288;22308;-83
2023/03/22 17:00:45;;;;;;;;;;;;;;;;;;136518;1286;22650;-85
2023/03/22 17:03:48;;;;;;;;;;;;;;;;;;136507;1288;22266;-85
2023/03/22 17:06:51;;;;;;;;;;;;;;;;;;136519;1288;22263;-86
2023/03/22 17:09:56;;;;;;;;;;;;;;;;;;136513;1288;22981;-85
2023/03/22 17:13:02;;;;;;;;;;;;;;;;;;136505;1288;22426;-85
2023/03/22 17:16:04;;;;;;;;;;;;;;;;;;136474;1288;22264;-85
2023/03/22 17:19:21;;;;;;;;;;;;;;;;;;136483;1288;22432;-84
2023/03/22 17:22:23;;;;;;;;;;;;;;;;;;136487;1289;22292;-86
2023/03/22 17:25:26;;;;;;;;;;;;;;;;;;136475;1281;22260;-87
2023/03/22 17:28:30;;;;;;;;;;;;;;;;;;136451;1288;22496;-85
2023/03/22 17:31:38;;;;;;;;;;;;;;;;;;136509;1283;22292;-85
2023/03/22 17:34:41;;;;;;;;;;;;;;;;;;136503;1288;22255;-86
2023/03/22 17:37:45;;;;;;;;;;;;;;;;;;136501;1288;22408;-86
2023/03/22 17:40:47;;;;;;;;;;;;;;;;;;136509;1288;22301;-86
2023/03/22 17:43:50;;;;;;;;;;;;;;;;;;136495;1288;22448;-85
2023/03/22 17:46:52;;;;;;;;;;;;;;;;;;136519;1288;22269;-85
2023/03/22 17:49:55;;;;;;;;;;;;;;;;;;136540;1273;22579;-84
2023/03/22 17:52:57;;;;;;;;;;;;;;;;;;136500;1288;22204;-82
2023/03/22 17:56:00;;;;;;;;;;;;;;;;;;136537;1288;22273;-83
2023/03/22 17:59:02;;;;;;;;;;;;;;;;;;136513;1288;22287;-82
2023/03/22 18:02:04;;;;;;;;;;;;;;;;;;136506;1288;22269;-84
2023/03/22 18:05:07;;;;;;;;;;;;;;;;;;136522;1288;22265;-84
2023/03/22 18:08:11;;;;;;;;;;;;;;;;;;136506;1288;22266;-81
2023/03/22 18:11:14;;;;;;;;;;;;;;;;;;136489;1288;22274;-81
2023/03/22 18:14:16;;;;;;;;;;;;;;;;;;136460;1288;22332;-82
2023/03/22 18:17:19;;;;;;;;;;;;;;;;;;136462;1288;22360;-81
2023/03/22 18:20:24;;;;;;;;;;;;;;;;;;136463;1288;22363;-82
2023/03/22 18:23:27;;;;;;;;;;;;;;;;;;136504;1288;22897;-82
2023/03/22 18:26:32;;;;;;;;;;;;;;;;;;136459;1288;22210;-81
2023/03/22 18:29:34;;;;;;;;;;;;;;;;;;136461;1288;22261;-81
2023/03/22 18:32:36;;;;;;;;;;;;;;;;;;136466;1288;22274;-81
2023/03/22 18:35:39;;;;;;;;;;;;;;;;;;136477;1288;22755;-82
2023/03/22 18:38:45;;;;;;;;;;;;;;;;;;136508;1288;22680;-82
2023/03/22 18:41:47;;;;;;;;;;;;;;;;;;136501;1283;22513;-82
2023/03/22 18:44:50;;;;;;;;;;;;;;;;;;136506;1288;22240;-81
2023/03/22 18:47:54;;;;;;;;;;;;;;;;;;136516;1288;22304;-79
2023/03/22 18:50:58;;;;;;;;;;;;;;;;;;136512;1288;22162;-82
2023/03/22 18:54:00;;;;;;;;;;;;;;;;;;136505;1288;22657;-82
2023/03/22 18:57:03;;;;;;;;;;;;;;;;;;136491;1288;22246;-82
2023/03/22 19:00:05;;;;;;;;;;;;;;;;;;136502;1288;22334;-82
2023/03/22 19:03:08;;;;;;;;;;;;;;;;;;136531;1288;22356;-82
2023/03/22 19:06:11;;;;;;;;;;;;;;;;;;136518;1288;22709;-82
2023/03/22 19:09:14;;;;;;;;;;;;;;;;;;136538;1288;22347;-82
2023/03/22 19:12:16;;;;;;;;;;;;;;;;;;136506;1288;22377;-81
2023/03/22 19:15:19;;;;;;;;;;;;;;;;;;136496;1288;22231;-81
2023/03/22 19:18:22;;;;;;;;;;;;;;;;;;136492;1289;22572;-81
2023/03/22 19:21:24;;;;;;;;;;;;;;;;;;136517;1288;22369;-80
2023/03/22 19:24:28;;;;;;;;;;;;;;;;;;136514;1288;22295;-81
2023/03/22 19:27:31;;;;;;;;;;;;;;;;;;136477;1288;22175;-81
2023/03/22 19:30:33;;;;;;;;;;;;;;;;;;136481;1288;22288;-82
2023/03/22 19:33:36;;;;;;;;;;;;;;;;;;136491;1288;22636;-82
2023/03/22 19:36:41;;;;;;;;;;;;;;;;;;136503;1289;22752;-83
2023/03/22 19:39:43;;;;;;;;;;;;;;;;;;136544;1288;22256;-82
2023/03/22 19:42:46;;;;;;;;;;;;;;;;;;136525;1286;23080;-83
2023/03/22 19:45:51;;;;;;;;;;;;;;;;;;136531;1288;22782;-83
2023/03/22 19:48:53;;;;;;;;;;;;;;;;;;136524;1288;22318;-82
2023/03/22 19:51:58;;;;;;;;;;;;;;;;;;136533;1288;22273;-82
2023/03/22 19:55:01;;;;;;;;;;;;;;;;;;136538;1288;22315;-80
2023/03/22 19:58:03;;;;;;;;;;;;;;;;;;136512;1288;22452;-82
2023/03/22 20:01:08;;;;;;;;;;;;;;;;;;136528;1288;22192;-83
2023/03/22 20:04:10;;;;;;;;;;;;;;;;;;136531;1283;22234;-82
2023/03/22 20:07:15;;;;;;;;;;;;;;;;;;136516;1288;22244;-82
2023/03/22 20:10:17;;;;;;;;;;;;;;;;;;136505;1288;22263;-81
2023/03/22 20:13:20;;;;;;;;;;;;;;;;;;136504;1288;22525;-81
2023/03/22 20:16:22;;;;;;;;;;;;;;;;;;136513;1288;22799;-80
2023/03/22 20:19:25;;;;;;;;;;;;;;;;;;136503;1289;22328;-81
2023/03/22 20:22:27;;;;;;;;;;;;;;;;;;136501;1288;22264;-80
2023/03/22 20:25:31;;;;;;;;;;;;;;;;;;136499;1288;22278;-81
2023/03/22 20:28:33;;;;;;;;;;;;;;;;;;136506;1289;22210;-81